Koushinmaru No.5 — JL6695 — position and weather

sailwx.info

Track history (hours):
 
Tides and Currents Weather Stations Pressure Air Temp Water Temp Dewpoint Dewpoint Depression Visibility Wind Speed Wind Dir Waves Ship Positions

Koushinmaru No.5

Last reported at 2014-Dec-21 16:05 UTC. Time now 2014-Dec-22 07:49 UTC.
Position N 35°15' E 139°46'.

Length 75 m; draft 3.4 m.

Type: Cargo ship. MMSI: 431301703.

Date/timePositionNaut miles runAvg speedWind from/ knotsBaromVisibWave heightAir tempDewpointWater temp
2014-Dec-21 16:05N 35°15' E 139°46'510.1
2014-Dec-21 15:33N 35°19' E 139°43'6 6.4
2014-Dec-21 14:33N 35°24' E 139°48'4 3.3
2014-Dec-21 13:30N 35°22' E 139°51'0 0.0
2014-Dec-21 12:33N 35°22' E 139°51'0 0.0
2014-Dec-21 11:33N 35°22' E 139°51'0 0.0
2014-Dec-21 10:33N 35°22' E 139°51'0 0.0
2014-Dec-21 09:33N 35°22' E 139°51'0 0.0
2014-Dec-21 08:33N 35°22' E 139°51'0 0.0
2014-Dec-21 07:33N 35°22' E 139°51'0 0.0
2014-Dec-21 06:33N 35°22' E 139°51'0 0.0
2014-Dec-21 05:33N 35°22' E 139°51'5 4.8
2014-Dec-21 04:29N 35°26' E 139°49'2 0.0
2014-Dec-19 08:30N 35°28' E 139°50'1010.7
2014-Dec-19 07:33N 35°19' E 139°44'  
2014-Dec-14 02:29N 34°37' E 135°02'1111.6
2014-Dec-14 01:33N 34°36' E 135°15'1010.3
2014-Dec-14 00:33N 34°35' E 135°27'0 0.1
2014-Dec-13 23:32N 34°35' E 135°27'0 0.0
2014-Dec-13 22:33N 34°35' E 135°27'0 0.0
2014-Dec-13 21:31N 34°35' E 135°27'0 0.0
2014-Dec-13 20:29N 34°35' E 135°27'0 0.0
2014-Dec-13 19:33N 34°36' E 135°27'0 0.0
2014-Dec-13 18:33N 34°36' E 135°27'0 0.0
2014-Dec-13 17:33N 34°35' E 135°27'0 0.0
2014-Dec-13 16:33N 34°35' E 135°27'6 5.6
2014-Dec-13 15:33N 34°35' E 135°20'1110.8
2014-Dec-13 14:33N 34°27' E 135°11'1311.0
2014-Dec-13 13:22N 34°16' E 135°03'4 4.4
2014-Dec-13 12:33N 34°15' E 135°07'0 0.0
2014-Dec-13 11:33N 34°15' E 135°07'0 0.0
2014-Dec-13 10:33N 34°15' E 135°07'0 0.1
2014-Dec-13 09:33N 34°15' E 135°07'0 0.0
2014-Dec-13 08:33N 34°15' E 135°07'0 0.0
2014-Dec-13 07:33N 34°15' E 135°07'0 0.0
2014-Dec-13 06:32N 34°15' E 135°07'0 0.0
2014-Dec-13 05:33N 34°15' E 135°07'1 0.8
2014-Dec-13 04:33N 34°15' E 135°06'0 0.1
2014-Dec-13 03:33N 34°15' E 135°06'0 0.0
2014-Dec-13 02:33N 34°15' E 135°06'0 0.1
2014-Dec-13 01:33N 34°15' E 135°06'6 6.1
2014-Dec-13 00:33N 34°09' E 135°04'  
Track history (hours):
 
Tides and Currents Weather Stations Pressure Air Temp Water Temp Dewpoint Dewpoint Depression Visibility Wind Speed Wind Dir Waves Ship Positions

Koushinmaru No.5

Last reported at 2014-Dec-21 16:05 UTC. Time now 2014-Dec-22 07:49 UTC.
Position N 35°15' E 139°46'.

Length 75 m; draft 3.4 m.

Type: Cargo ship. MMSI: 431301703.

Date/timePositionNaut miles runAvg speedWind from/ knotsBaromVisibWave heightAir tempDewpointWater temp
2014-Dec-21 16:05N 35°15' E 139°46'510.1
2014-Dec-21 15:33N 35°19' E 139°43'6 6.4
2014-Dec-21 14:33N 35°24' E 139°48'4 3.3
2014-Dec-21 13:30N 35°22' E 139°51'0 0.0
2014-Dec-21 12:33N 35°22' E 139°51'0 0.0
2014-Dec-21 11:33N 35°22' E 139°51'0 0.0
2014-Dec-21 10:33N 35°22' E 139°51'0 0.0
2014-Dec-21 09:33N 35°22' E 139°51'0 0.0
2014-Dec-21 08:33N 35°22' E 139°51'0 0.0
2014-Dec-21 07:33N 35°22' E 139°51'0 0.0
2014-Dec-21 06:33N 35°22' E 139°51'0 0.0
2014-Dec-21 05:33N 35°22' E 139°51'5 4.8
2014-Dec-21 04:29N 35°26' E 139°49'2 0.0
2014-Dec-19 08:30N 35°28' E 139°50'1010.7
2014-Dec-19 07:33N 35°19' E 139°44'  
2014-Dec-14 02:29N 34°37' E 135°02'1111.6
2014-Dec-14 01:33N 34°36' E 135°15'1010.3
2014-Dec-14 00:33N 34°35' E 135°27'0 0.1
2014-Dec-13 23:32N 34°35' E 135°27'0 0.0
2014-Dec-13 22:33N 34°35' E 135°27'0 0.0
2014-Dec-13 21:31N 34°35' E 135°27'0 0.0
2014-Dec-13 20:29N 34°35' E 135°27'0 0.0
2014-Dec-13 19:33N 34°36' E 135°27'0 0.0
2014-Dec-13 18:33N 34°36' E 135°27'0 0.0
2014-Dec-13 17:33N 34°35' E 135°27'0 0.0
2014-Dec-13 16:33N 34°35' E 135°27'6 5.6
2014-Dec-13 15:33N 34°35' E 135°20'1110.8
2014-Dec-13 14:33N 34°27' E 135°11'1311.0
2014-Dec-13 13:22N 34°16' E 135°03'4 4.4
2014-Dec-13 12:33N 34°15' E 135°07'0 0.0
2014-Dec-13 11:33N 34°15' E 135°07'0 0.0
2014-Dec-13 10:33N 34°15' E 135°07'0 0.1
2014-Dec-13 09:33N 34°15' E 135°07'0 0.0
2014-Dec-13 08:33N 34°15' E 135°07'0 0.0
2014-Dec-13 07:33N 34°15' E 135°07'0 0.0
2014-Dec-13 06:32N 34°15' E 135°07'0 0.0
2014-Dec-13 05:33N 34°15' E 135°07'1 0.8
2014-Dec-13 04:33N 34°15' E 135°06'0 0.1
2014-Dec-13 03:33N 34°15' E 135°06'0 0.0
2014-Dec-13 02:33N 34°15' E 135°06'0 0.1
2014-Dec-13 01:33N 34°15' E 135°06'6 6.1
2014-Dec-13 00:33N 34°09' E 135°04'  

Dump ship's entire track history